Time;durP1;ratioP1;P1;durP2;ratioP2;P2;SDS_P1;SDS_P2;PMS_P1;PMS_P2;Temp;Humidity;BMP_temperature;BMP_pressure;BME280_temperature;BME280_humidity;BME280_pressure;Samples;Min_cycle;Max_cycle;Signal;HPM_P1;HPM_P2
2023/07/22 00:01:31;;;;;;;10.23;3.97;;;;;;;;;;4931844;29;20394;-80
2023/07/22 00:03:57;;;;;;;8.75;4.10;;;;;;;;;;4922632;29;20037;-80
2023/07/22 00:06:23;;;;;;;10.02;4.22;;;;;;;;;;4914125;29;20084;-80
2023/07/22 00:08:50;;;;;;;7.10;3.70;;;;;;;;;;4916729;29;20119;-80
2023/07/22 00:11:16;;;;;;;8.57;3.90;;;;;;;;;;4923633;29;20078;-80
2023/07/22 00:13:43;;;;;;;8.57;3.60;;;;;;;;;;4918054;29;20664;-80
2023/07/22 00:16:10;;;;;;;9.50;3.85;;;;;;;;;;4918877;29;20120;-80
2023/07/22 00:18:37;;;;;;;8.82;4.00;;;;;;;;;;4918639;29;20131;-80
2023/07/22 00:21:03;;;;;;;7.35;3.92;;;;;;;;;;4920722;29;20035;-81
2023/07/22 00:23:29;;;;;;;8.73;3.97;;;;;;;;;;4920899;29;20036;-80
2023/07/22 00:25:56;;;;;;;9.40;3.70;;;;;;;;;;4923735;29;20432;-80
2023/07/22 00:28:22;;;;;;;9.07;3.53;;;;;;;;;;4915416;29;20032;-80
2023/07/22 00:30:49;;;;;;;6.15;3.60;;;;;;;;;;4933824;29;20069;-80
2023/07/22 00:33:15;;;;;;;9.23;4.20;;;;;;;;;;4919956;29;20020;-80
2023/07/22 00:35:41;;;;;;;9.00;3.78;;;;;;;;;;4927198;29;20534;-80
2023/07/22 00:38:07;;;;;;;7.80;3.53;;;;;;;;;;4932040;29;20036;-80
2023/07/22 00:40:33;;;;;;;8.20;3.70;;;;;;;;;;4921295;29;20036;-80
2023/07/22 00:43:02;;;;;;;6.60;3.80;;;;;;;;;;4927097;29;20477;-81
2023/07/22 00:45:28;;;;;;;9.68;3.83;;;;;;;;;;4924565;29;20032;-80
2023/07/22 00:47:54;;;;;;;9.25;3.55;;;;;;;;;;4935521;29;20023;-80
2023/07/22 00:50:20;;;;;;;7.95;3.25;;;;;;;;;;4922200;29;20040;-81
2023/07/22 00:52:46;;;;;;;7.90;4.18;;;;;;;;;;4917530;29;20035;-81
2023/07/22 00:55:12;;;;;;;7.30;3.70;;;;;;;;;;4921243;29;20083;-80
2023/07/22 00:57:38;;;;;;;7.03;3.45;;;;;;;;;;4918340;29;20040;-80
2023/07/22 01:00:05;;;;;;;9.20;3.88;;;;;;;;;;4917797;29;20106;-80
2023/07/22 01:02:31;;;;;;;9.75;3.80;;;;;;;;;;4924470;29;20103;-80
2023/07/22 01:04:57;;;;;;;7.93;3.85;;;;;;;;;;4918054;29;20043;-80
2023/07/22 01:07:23;;;;;;;10.02;4.05;;;;;;;;;;4919558;29;20072;-80
2023/07/22 01:09:56;;;;;;;10.77;3.65;;;;;;;;;;4927971;29;20047;-80
2023/07/22 01:12:22;;;;;;;;;;;;;;;;;;4922738;29;20504;-80
2023/07/22 01:14:48;;;;;;;8.75;3.75;;;;;;;;;;4913251;29;19959;-80
2023/07/22 01:17:14;;;;;;;5.10;3.22;;;;;;;;;;4914827;29;20079;-80
2023/07/22 01:19:40;;;;;;;7.07;3.15;;;;;;;;;;4914583;29;20036;-80
2023/07/22 01:22:10;;;;;;;9.52;3.53;;;;;;;;;;4914665;29;20031;-80
2023/07/22 01:24:37;;;;;;;5.57;2.90;;;;;;;;;;4921083;29;20423;-80
2023/07/22 01:27:03;;;;;;;7.88;3.80;;;;;;;;;;4920731;29;20040;-80
2023/07/22 01:29:29;;;;;;;9.93;3.95;;;;;;;;;;4913083;29;20095;-80
2023/07/22 01:31:56;;;;;;;7.68;3.03;;;;;;;;;;4931950;28;20051;-80
2023/07/22 01:34:24;;;;;;;6.63;3.50;;;;;;;;;;4919211;29;20083;-80
2023/07/22 01:36:50;;;;;;;6.47;3.63;;;;;;;;;;4923046;29;20044;-80
2023/07/22 01:39:17;;;;;;;8.40;3.70;;;;;;;;;;4922045;29;20036;-80
2023/07/22 01:41:43;;;;;;;7.18;3.67;;;;;;;;;;4916804;29;20032;-79
2023/07/22 01:44:09;;;;;;;11.10;4.03;;;;;;;;;;4919309;29;20075;-80
2023/07/22 01:46:36;;;;;;;6.30;3.25;;;;;;;;;;4919602;29;20056;-80
2023/07/22 01:49:02;;;;;;;6.85;3.78;;;;;;;;;;4913477;29;20040;-80
2023/07/22 01:51:28;;;;;;;8.45;3.53;;;;;;;;;;4929513;29;20122;-81
2023/07/22 01:53:56;;;;;;;6.90;2.75;;;;;;;;;;4917384;29;20475;-80
2023/07/22 01:56:22;;;;;;;7.63;3.33;;;;;;;;;;4923768;29;20028;-80
2023/07/22 01:58:48;;;;;;;6.60;3.05;;;;;;;;;;4926943;29;20087;-80
2023/07/22 02:01:16;;;;;;;6.80;3.22;;;;;;;;;;4923777;29;20056;-80
2023/07/22 02:03:42;;;;;;;10.93;3.45;;;;;;;;;;4923045;29;20038;-80
2023/07/22 02:06:08;;;;;;;9.38;3.17;;;;;;;;;;4917578;29;20028;-80
2023/07/22 02:08:36;;;;;;;7.97;3.53;;;;;;;;;;4918768;29;20064;-80
2023/07/22 02:11:06;;;;;;;10.98;3.80;;;;;;;;;;4919738;29;20146;-80
2023/07/22 02:13:33;;;;;;;7.97;4.40;;;;;;;;;;4926272;29;20047;-80
2023/07/22 02:15:59;;;;;;;12.10;3.75;;;;;;;;;;4919576;29;20115;-80
2023/07/22 02:18:25;;;;;;;8.15;3.53;;;;;;;;;;4930500;29;20059;-80
2023/07/22 02:20:51;;;;;;;16.00;3.65;;;;;;;;;;4923085;29;20027;-80
2023/07/22 02:23:18;;;;;;;9.02;3.45;;;;;;;;;;4899546;29;20028;-80
2023/07/22 02:25:44;;;;;;;9.38;3.85;;;;;;;;;;4922271;29;20024;-80
2023/07/22 02:28:10;;;;;;;8.38;3.08;;;;;;;;;;4918692;29;20040;-80
2023/07/22 02:30:39;;;;;;;9.23;3.63;;;;;;;;;;4919609;29;20040;-80
2023/07/22 02:33:05;;;;;;;7.25;3.58;;;;;;;;;;4926607;29;20071;-80
2023/07/22 02:35:33;;;;;;;10.30;4.35;;;;;;;;;;4925197;29;20094;-80
2023/07/22 02:37:59;;;;;;;6.47;3.10;;;;;;;;;;4924594;29;20032;-80
2023/07/22 02:40:25;;;;;;;8.85;3.53;;;;;;;;;;4926074;29;20102;-80
2023/07/22 02:42:51;;;;;;;6.28;3.83;;;;;;;;;;4918438;29;20024;-79
2023/07/22 02:45:17;;;;;;;6.35;2.80;;;;;;;;;;4932319;29;20044;-80
2023/07/22 02:47:43;;;;;;;8.48;3.35;;;;;;;;;;4918017;29;20180;-80
2023/07/22 02:50:09;;;;;;;5.95;3.40;;;;;;;;;;4936267;29;20558;-80
2023/07/22 02:52:36;;;;;;;6.35;3.60;;;;;;;;;;4919954;29;20127;-80
2023/07/22 02:55:07;;;;;;;8.52;3.42;;;;;;;;;;4920437;29;20036;-80
2023/07/22 02:57:34;;;;;;;10.82;4.07;;;;;;;;;;4924902;29;20651;-80
2023/07/22 03:00:00;;;;;;;10.43;3.35;;;;;;;;;;4930286;29;20036;-80
2023/07/22 03:02:26;;;;;;;7.40;3.50;;;;;;;;;;4923355;29;20095;-80
2023/07/22 03:04:52;;;;;;;9.73;3.83;;;;;;;;;;4918567;29;20088;-80
2023/07/22 03:07:20;;;;;;;7.65;3.45;;;;;;;;;;4920568;29;20059;-80
2023/07/22 03:09:46;;;;;;;9.07;3.47;;;;;;;;;;4920304;29;20028;-80
2023/07/22 03:12:12;;;;;;;7.15;2.92;;;;;;;;;;4920730;29;20040;-80
2023/07/22 03:14:38;;;;;;;8.88;3.58;;;;;;;;;;4924242;29;20063;-80
2023/07/22 03:17:05;;;;;;;7.10;3.20;;;;;;;;;;4923779;29;20071;-80
2023/07/22 03:19:30;;;;;;;6.75;3.40;;;;;;;;;;4924375;29;20028;-80
2023/07/22 03:21:56;;;;;;;10.30;3.63;;;;;;;;;;4930271;29;20040;-80
2023/07/22 03:24:23;;;;;;;6.38;2.92;;;;;;;;;;4915913;29;20570;-80
2023/07/22 03:26:49;;;;;;;9.75;3.40;;;;;;;;;;4918861;29;20036;-80
2023/07/22 03:29:15;;;;;;;7.60;3.72;;;;;;;;;;4921950;29;20068;-80
2023/07/22 03:31:41;;;;;;;7.05;3.25;;;;;;;;;;4922977;29;20474;-80
2023/07/22 03:34:07;;;;;;;6.88;3.38;;;;;;;;;;4916316;29;20068;-80
2023/07/22 03:36:36;;;;;;;9.32;3.67;;;;;;;;;;4920128;29;20024;-80
2023/07/22 03:39:02;;;;;;;9.45;3.42;;;;;;;;;;4914646;29;20479;-80
2023/07/22 03:41:28;;;;;;;6.47;3.45;;;;;;;;;;4917130;29;20055;-80
2023/07/22 03:43:54;;;;;;;9.45;3.50;;;;;;;;;;4918686;29;20094;-80
2023/07/22 03:46:21;;;;;;;9.27;3.78;;;;;;;;;;4919137;29;20697;-80
2023/07/22 03:48:47;;;;;;;11.27;4.18;;;;;;;;;;4915152;29;20040;-80
2023/07/22 03:51:13;;;;;;;9.18;3.47;;;;;;;;;;4925723;29;20546;-80
2023/07/22 03:53:39;;;;;;;8.40;3.83;;;;;;;;;;4938128;29;20048;-80
2023/07/22 03:56:05;;;;;;;7.72;3.55;;;;;;;;;;4923840;29;20048;-80
2023/07/22 03:58:31;;;;;;;9.05;3.92;;;;;;;;;;4922262;29;20046;-80
2023/07/22 04:00:57;;;;;;;9.88;3.80;;;;;;;;;;4927204;29;20024;-80
2023/07/22 04:03:23;;;;;;;9.25;3.63;;;;;;;;;;4919827;29;20063;-80
2023/07/22 04:05:55;;;;;;;6.10;3.35;;;;;;;;;;4925816;29;20055;-80
2023/07/22 04:08:21;;;;;;;6.32;3.05;;;;;;;;;;4927741;29;20127;-80
2023/07/22 04:10:57;;;;;;;8.85;3.72;;;;;;;;;;4916818;29;20047;-80
2023/07/22 04:13:23;;;;;;;7.47;3.22;;;;;;;;;;4927440;29;20043;-80
2023/07/22 04:15:50;;;;;;;6.20;3.55;;;;;;;;;;4919501;29;20103;-80
2023/07/22 04:18:16;;;;;;;6.28;3.28;;;;;;;;;;4917035;29;20834;-80
2023/07/22 04:20:42;;;;;;;7.85;3.03;;;;;;;;;;4920807;29;20031;-80
2023/07/22 04:23:08;;;;;;;9.88;3.20;;;;;;;;;;4927072;29;20532;-80
2023/07/22 04:25:39;;;;;;;6.47;3.30;;;;;;;;;;4925066;29;20023;-80
2023/07/22 04:28:05;;;;;;;9.73;3.25;;;;;;;;;;4914752;29;20071;-80
2023/07/22 04:30:30;;;;;;;8.43;3.83;;;;;;;;;;4921531;29;20853;-80
2023/07/22 04:32:57;;;;;;;10.02;3.92;;;;;;;;;;4917950;29;20036;-80
2023/07/22 04:35:23;;;;;;;7.22;3.33;;;;;;;;;;4928312;29;20130;-80
2023/07/22 04:37:49;;;;;;;9.75;3.75;;;;;;;;;;4915666;29;20470;-80
2023/07/22 04:40:16;;;;;;;9.65;3.78;;;;;;;;;;4927302;29;20028;-80
2023/07/22 04:42:42;;;;;;;6.95;3.90;;;;;;;;;;4921175;29;20075;-81
2023/07/22 04:45:09;;;;;;;13.55;5.68;;;;;;;;;;4924298;29;20039;-80
2023/07/22 04:47:36;;;;;;;12.23;5.68;;;;;;;;;;4921069;29;20537;-81
2023/07/22 04:50:03;;;;;;;10.55;5.50;;;;;;;;;;4926184;29;20062;-80
2023/07/22 04:52:29;;;;;;;9.70;4.97;;;;;;;;;;4903452;29;20120;-81
2023/07/22 04:54:55;;;;;;;9.05;4.85;;;;;;;;;;4924382;29;20153;-80
2023/07/22 04:57:21;;;;;;;10.63;5.55;;;;;;;;;;4924561;29;20458;-80
2023/07/22 04:59:47;;;;;;;8.82;5.28;;;;;;;;;;4921159;29;20046;-80
2023/07/22 05:02:14;;;;;;;11.35;4.60;;;;;;;;;;4915135;29;20036;-80
2023/07/22 05:04:40;;;;;;;10.15;4.70;;;;;;;;;;4913293;29;20032;-81
2023/07/22 05:07:05;;;;;;;9.25;4.80;;;;;;;;;;4921641;29;20656;-80
2023/07/22 05:09:33;;;;;;;13.88;5.15;;;;;;;;;;4915606;29;20047;-80
2023/07/22 05:11:59;;;;;;;8.95;4.85;;;;;;;;;;4919224;29;20031;-80
2023/07/22 05:14:25;;;;;;;8.77;4.70;;;;;;;;;;4922653;29;20118;-80
2023/07/22 05:16:51;;;;;;;9.90;4.90;;;;;;;;;;4920174;29;20707;-80
2023/07/22 05:19:17;;;;;;;10.40;4.93;;;;;;;;;;4926095;29;20137;-80
2023/07/22 05:21:43;;;;;;;13.88;5.20;;;;;;;;;;4915887;29;20553;-80
2023/07/22 05:24:09;;;;;;;11.70;4.57;;;;;;;;;;4915279;29;20032;-80
2023/07/22 05:26:35;;;;;;;10.68;4.32;;;;;;;;;;4915476;29;20129;-81
2023/07/22 05:29:00;;;;;;;8.38;4.80;;;;;;;;;;4923406;29;20040;-80
2023/07/22 05:31:26;;;;;;;11.68;4.45;;;;;;;;;;4920281;29;20391;-80
2023/07/22 05:33:52;;;;;;;8.07;5.25;;;;;;;;;;4921252;29;20067;-80
2023/07/22 05:36:18;;;;;;;9.20;5.55;;;;;;;;;;4918039;29;20035;-80
2023/07/22 05:38:44;;;;;;;10.70;5.68;;;;;;;;;;4921208;29;20068;-80
2023/07/22 05:41:10;;;;;;;11.38;5.25;;;;;;;;;;4931400;29;20550;-80
2023/07/22 05:43:36;;;;;;;13.07;4.55;;;;;;;;;;4930743;29;20059;-81
2023/07/22 05:46:02;;;;;;;9.15;4.72;;;;;;;;;;4918818;29;20036;-81
2023/07/22 05:48:28;;;;;;;11.27;5.00;;;;;;;;;;4941275;29;20032;-81
2023/07/22 05:50:54;;;;;;;11.35;4.40;;;;;;;;;;4918089;29;20088;-82
2023/07/22 05:53:20;;;;;;;7.45;3.83;;;;;;;;;;4921621;29;20063;-82
2023/07/22 05:55:46;;;;;;;6.55;3.85;;;;;;;;;;4902554;29;20043;-81
2023/07/22 05:58:17;;;;;;;8.68;4.35;;;;;;;;;;4917843;29;20036;-81
2023/07/22 06:00:43;;;;;;;8.35;4.63;;;;;;;;;;4932309;29;20095;-82
2023/07/22 06:03:09;;;;;;;10.77;4.32;;;;;;;;;;4933973;29;20103;-81
2023/07/22 06:05:35;;;;;;;9.18;4.53;;;;;;;;;;4932048;29;20038;-81
2023/07/22 06:08:01;;;;;;;7.15;4.20;;;;;;;;;;4939255;29;20051;-81
2023/07/22 06:10:27;;;;;;;10.40;4.35;;;;;;;;;;4927726;29;20043;-81
2023/07/22 06:12:53;;;;;;;13.52;5.22;;;;;;;;;;4908514;29;20040;-81
2023/07/22 06:15:19;;;;;;;10.00;5.38;;;;;;;;;;4927402;29;20047;-81
2023/07/22 06:17:45;;;;;;;11.45;5.85;;;;;;;;;;4928885;29;20498;-81
2023/07/22 06:20:11;;;;;;;13.27;5.13;;;;;;;;;;4916354;29;20079;-82
2023/07/22 06:22:37;;;;;;;10.70;4.75;;;;;;;;;;4937341;29;20111;-81
2023/07/22 06:25:03;;;;;;;9.00;4.70;;;;;;;;;;4920080;29;20379;-82
2023/07/22 06:27:30;;;;;;;8.23;5.07;;;;;;;;;;4939768;29;20474;-81
2023/07/22 06:29:56;;;;;;;11.98;5.40;;;;;;;;;;4934266;29;20054;-81
2023/07/22 06:32:22;;;;;;;11.18;4.38;;;;;;;;;;4917420;29;20031;-82
2023/07/22 06:34:48;;;;;;;9.73;4.82;;;;;;;;;;4940106;29;20062;-82
2023/07/22 06:37:14;;;;;;;11.60;5.45;;;;;;;;;;4918381;29;20762;-82
2023/07/22 06:39:40;;;;;;;10.77;4.60;;;;;;;;;;4937394;29;20036;-82
2023/07/22 06:42:06;;;;;;;11.63;5.13;;;;;;;;;;4931509;29;20035;-81
2023/07/22 06:44:32;;;;;;;12.52;4.63;;;;;;;;;;4924010;29;20038;-81
2023/07/22 06:46:58;;;;;;;10.52;4.65;;;;;;;;;;4931930;29;20098;-81
2023/07/22 06:49:24;;;;;;;8.35;4.80;;;;;;;;;;4918698;29;20456;-81
2023/07/22 06:51:51;;;;;;;13.02;5.55;;;;;;;;;;4935276;29;20042;-81
2023/07/22 06:54:17;;;;;;;12.70;5.57;;;;;;;;;;4933777;29;20051;-80
2023/07/22 06:56:43;;;;;;;10.25;4.95;;;;;;;;;;4929230;29;20031;-81
2023/07/22 06:59:09;;;;;;;7.65;4.80;;;;;;;;;;4921692;29;20055;-81
2023/07/22 07:01:35;;;;;;;7.32;4.13;;;;;;;;;;4919466;29;20103;-80
2023/07/22 07:04:01;;;;;;;9.75;4.95;;;;;;;;;;4921302;29;20060;-80
2023/07/22 07:06:29;;;;;;;11.98;5.13;;;;;;;;;;4923838;29;20043;-81
2023/07/22 07:08:55;;;;;;;9.43;4.30;;;;;;;;;;4939889;29;20114;-80
2023/07/22 07:11:21;;;;;;;9.25;4.35;;;;;;;;;;4912339;29;20039;-81
2023/07/22 07:13:47;;;;;;;10.10;4.85;;;;;;;;;;4940939;29;20693;-84
2023/07/22 07:16:21;;;;;;;10.10;5.18;;;;;;;;;;4917784;29;20071;-82
2023/07/22 07:18:47;;;;;;;10.75;4.88;;;;;;;;;;4920276;29;20475;-82
2023/07/22 07:21:13;;;;;;;8.63;4.10;;;;;;;;;;4920255;29;20043;-82
2023/07/22 07:23:39;;;;;;;10.35;4.63;;;;;;;;;;4936073;29;20123;-82
2023/07/22 07:26:05;;;;;;;13.85;4.90;;;;;;;;;;4938780;29;20042;-81
2023/07/22 07:28:31;;;;;;;10.85;3.83;;;;;;;;;;4930725;29;20044;-82
2023/07/22 07:30:57;;;;;;;9.18;3.83;;;;;;;;;;4921046;29;20044;-81
2023/07/22 07:33:23;;;;;;;8.00;3.80;;;;;;;;;;4921895;29;20032;-82
2023/07/22 07:35:49;;;;;;;8.32;3.63;;;;;;;;;;4933677;29;20068;-82
2023/07/22 07:38:16;;;;;;;8.18;3.15;;;;;;;;;;4939962;29;20031;-82
2023/07/22 07:40:42;;;;;;;5.85;2.72;;;;;;;;;;4916996;29;20028;-82
2023/07/22 07:43:08;;;;;;;7.63;3.05;;;;;;;;;;4945940;29;20494;-82
2023/07/22 07:45:34;;;;;;;6.45;3.30;;;;;;;;;;4922450;29;20810;-81
2023/07/22 07:48:00;;;;;;;9.88;3.55;;;;;;;;;;4932427;29;20095;-82
2023/07/22 07:50:26;;;;;;;5.70;2.70;;;;;;;;;;4927315;29;20471;-82
2023/07/22 07:52:52;;;;;;;8.40;3.10;;;;;;;;;;4939623;29;20062;-82
2023/07/22 07:55:19;;;;;;;9.48;3.03;;;;;;;;;;4930408;29;20044;-82
2023/07/22 07:57:44;;;;;;;6.70;2.40;;;;;;;;;;4925139;29;20032;-82
2023/07/22 08:00:11;;;;;;;11.02;2.60;;;;;;;;;;4930692;29;20095;-82
2023/07/22 08:02:37;;;;;;;6.18;2.83;;;;;;;;;;4926441;29;20051;-81
2023/07/22 08:05:03;;;;;;;6.30;2.50;;;;;;;;;;4924921;29;20137;-81
2023/07/22 08:07:29;;;;;;;6.07;2.35;;;;;;;;;;4930090;29;20095;-82
2023/07/22 08:09:57;;;;;;;6.78;2.58;;;;;;;;;;4921465;29;20040;-82
2023/07/22 08:12:23;;;;;;;6.32;2.53;;;;;;;;;;4918249;29;20036;-81
2023/07/22 08:14:49;;;;;;;7.07;2.75;;;;;;;;;;4926979;29;20046;-81
2023/07/22 08:17:15;;;;;;;6.60;2.95;;;;;;;;;;4927235;29;20115;-81
2023/07/22 08:19:41;;;;;;;6.10;2.60;;;;;;;;;;4929232;29;20043;-82
2023/07/22 08:22:07;;;;;;;4.85;2.05;;;;;;;;;;4918923;29;20028;-82
2023/07/22 08:24:33;;;;;;;5.63;2.65;;;;;;;;;;4940485;29;20057;-82
2023/07/22 08:26:59;;;;;;;4.40;2.40;;;;;;;;;;4915963;29;20423;-81
2023/07/22 08:29:25;;;;;;;5.65;2.40;;;;;;;;;;4945572;29;20040;-82
2023/07/22 08:31:51;;;;;;;5.20;2.55;;;;;;;;;;4942792;29;20068;-82
2023/07/22 08:34:17;;;;;;;7.40;2.28;;;;;;;;;;4923119;29;20040;-82
2023/07/22 08:36:44;;;;;;;6.90;2.42;;;;;;;;;;4915034;29;20098;-81
2023/07/22 08:39:10;;;;;;;4.20;2.10;;;;;;;;;;4914595;29;20055;-82
2023/07/22 08:41:36;;;;;;;8.02;2.20;;;;;;;;;;4929192;29;20687;-82
2023/07/22 08:44:04;;;;;;;6.07;2.30;;;;;;;;;;4934317;29;20040;-82
2023/07/22 08:46:33;;;;;;;5.63;2.33;;;;;;;;;;4936533;29;20043;-82
2023/07/22 08:49:00;;;;;;;5.50;2.00;;;;;;;;;;4934432;29;20047;-82
2023/07/22 08:51:28;;;;;;;7.50;2.85;;;;;;;;;;4913930;29;20036;-82
2023/07/22 08:53:56;;;;;;;5.60;2.38;;;;;;;;;;4932813;29;20517;-82
2023/07/22 08:56:23;;;;;;;4.07;2.10;;;;;;;;;;4922780;29;20031;-82
2023/07/22 08:58:50;;;;;;;4.47;1.90;;;;;;;;;;4937566;29;20386;-82
2023/07/22 09:01:16;;;;;;;4.82;2.13;;;;;;;;;;4939667;28;20038;-82
2023/07/22 09:03:42;;;;;;;8.93;2.33;;;;;;;;;;4939604;29;20156;-82
2023/07/22 09:06:08;;;;;;;7.30;2.03;;;;;;;;;;4936072;29;20051;-82
2023/07/22 09:08:34;;;;;;;4.10;2.10;;;;;;;;;;4900061;29;20091;-82
2023/07/22 09:11:00;;;;;;;5.72;2.03;;;;;;;;;;4928477;29;20055;-82
2023/07/22 09:13:27;;;;;;;4.35;2.00;;;;;;;;;;4915878;29;20038;-81
2023/07/22 09:15:53;;;;;;;6.50;2.45;;;;;;;;;;4935308;29;20028;-82
2023/07/22 09:18:19;;;;;;;4.90;2.60;;;;;;;;;;4920831;29;20043;-82
2023/07/22 09:20:45;;;;;;;4.88;2.30;;;;;;;;;;4942817;29;20032;-82
2023/07/22 09:23:12;;;;;;;5.93;2.13;;;;;;;;;;4923027;29;20024;-82
2023/07/22 09:25:38;;;;;;;7.03;2.20;;;;;;;;;;4931662;29;20485;-82
2023/07/22 09:28:04;;;;;;;9.88;2.10;;;;;;;;;;4934120;29;20554;-82
2023/07/22 09:30:34;;;;;;;7.53;2.05;;;;;;;;;;4909849;29;20134;-82
2023/07/22 09:33:02;;;;;;;3.50;1.73;;;;;;;;;;4928115;29;20071;-82
2023/07/22 09:35:49;;;;;;;5.50;2.20;;;;;;;;;;4932427;29;20047;-82
2023/07/22 09:38:15;;;;;;;5.65;2.30;;;;;;;;;;4922373;29;20035;-82
2023/07/22 09:40:41;;;;;;;4.07;1.92;;;;;;;;;;4939395;29;20055;-82
2023/07/22 09:43:10;;;;;;;11.45;2.53;;;;;;;;;;4939215;29;20040;-82
2023/07/22 09:45:37;;;;;;;4.53;1.95;;;;;;;;;;4931233;29;20039;-82
2023/07/22 09:48:04;;;;;;;5.60;2.28;;;;;;;;;;4928358;29;20036;-82
2023/07/22 09:50:30;;;;;;;12.98;2.40;;;;;;;;;;4919112;29;20139;-82
2023/07/22 09:53:01;;;;;;;4.53;1.95;;;;;;;;;;4914915;29;20075;-82
2023/07/22 09:55:31;;;;;;;5.85;1.98;;;;;;;;;;4926464;29;20090;-82
2023/07/22 09:57:58;;;;;;;4.72;1.98;;;;;;;;;;4913224;29;20040;-82
2023/07/22 10:00:28;;;;;;;5.95;1.77;;;;;;;;;;4900297;29;20066;-82
2023/07/22 10:02:56;;;;;;;5.47;2.33;;;;;;;;;;4927612;29;20028;-82
2023/07/22 10:05:22;;;;;;;5.32;1.95;;;;;;;;;;4910405;29;20387;-82
2023/07/22 10:07:53;;;;;;;5.90;1.58;;;;;;;;;;4912896;29;20056;-81
2023/07/22 10:10:39;;;;;;;8.55;2.03;;;;;;;;;;4927192;29;20490;-82
2023/07/22 10:13:06;;;;;;;4.03;1.55;;;;;;;;;;4921442;29;20039;-82
2023/07/22 10:15:34;;;;;;;4.82;1.77;;;;;;;;;;4940091;29;20076;-83
2023/07/22 10:18:00;;;;;;;4.55;1.83;;;;;;;;;;4940121;29;20032;-82
2023/07/22 10:20:26;;;;;;;6.20;1.92;;;;;;;;;;4921484;29;20028;-82
2023/07/22 10:22:52;;;;;;;6.00;1.52;;;;;;;;;;4916952;29;20379;-82
2023/07/22 10:25:19;;;;;;;3.63;1.65;;;;;;;;;;4933809;29;20043;-82
2023/07/22 10:27:46;;;;;;;4.70;1.70;;;;;;;;;;4942426;29;20028;-82
2023/07/22 10:30:13;;;;;;;4.57;1.88;;;;;;;;;;4933188;29;20775;-82
2023/07/22 10:32:41;;;;;;;7.13;2.40;;;;;;;;;;4938570;29;20064;-82
2023/07/22 10:35:11;;;;;;;5.13;1.77;;;;;;;;;;4916749;29;20080;-82
2023/07/22 10:37:37;;;;;;;3.55;1.58;;;;;;;;;;4925386;29;20035;-82
2023/07/22 10:40:30;;;;;;;5.40;1.95;;;;;;;;;;4938525;29;20043;-82
2023/07/22 10:43:06;;;;;;;5.70;1.40;;;;;;;;;;4932506;29;20487;-82
2023/07/22 10:45:33;;;;;;;5.78;1.77;;;;;;;;;;4946238;29;20078;-82
2023/07/22 10:48:05;;;;;;;6.05;1.25;;;;;;;;;;4931495;29;20135;-82
2023/07/22 10:50:40;;;;;;;4.15;1.30;;;;;;;;;;4930490;29;20044;-82
2023/07/22 10:53:06;;;;;;;5.20;1.67;;;;;;;;;;4909037;29;20415;-81
2023/07/22 10:59:23;;;;;;;4.38;1.60;;;;;;;;;;4862203;29;20071;-82
2023/07/22 11:12:40;;;;;;;4.32;1.20;;;;;;;;;;4920710;29;20050;-80
2023/07/22 11:15:22;;;;;;;3.58;1.00;;;;;;;;;;4904536;29;20850;-80
2023/07/22 11:20:53;;;;;;;3.40;1.30;;;;;;;;;;4929489;29;20050;-81
2023/07/22 11:24:00;;;;;;;3.13;1.60;;;;;;;;;;4913289;29;20030;-81
2023/07/22 11:26:52;;;;;;;3.70;1.05;;;;;;;;;;4909417;29;20388;-81
2023/07/22 11:29:51;;;;;;;2.97;1.30;;;;;;;;;;4910067;29;20519;-81
2023/07/22 11:32:39;;;;;;;2.30;1.00;;;;;;;;;;4901725;29;20062;-80
2023/07/22 11:38:09;;;;;;;6.63;1.67;;;;;;;;;;867719;27;21620;-80
2023/07/22 11:40:53;;;;;;;3.35;1.48;;;;;;;;;;4893690;29;20824;-81
2023/07/22 11:43:21;;;;;;;6.45;1.45;;;;;;;;;;4894696;29;20028;-80
2023/07/22 11:46:16;;;;;;;3.42;1.30;;;;;;;;;;4896358;29;20051;-81
2023/07/22 11:48:52;;;;;;;4.43;1.13;;;;;;;;;;4893401;29;20062;-81
2023/07/22 11:54:39;;;;;;;4.65;1.20;;;;;;;;;;4903280;29;20151;-81
2023/07/22 11:57:15;;;;;;;4.43;1.13;;;;;;;;;;4898902;29;20028;-82
2023/07/22 12:00:13;;;;;;;2.72;1.30;;;;;;;;;;4908742;29;20049;-82
2023/07/22 12:02:41;;;;;;;5.22;1.38;;;;;;;;;;4890463;29;20138;-81
2023/07/22 12:05:08;;;;;;;2.08;0.95;;;;;;;;;;4905919;29;20160;-82
2023/07/22 12:07:45;;;;;;;3.35;1.20;;;;;;;;;;4895899;29;20104;-81
2023/07/22 12:10:11;;;;;;;2.85;1.08;;;;;;;;;;4895919;29;20043;-80
2023/07/22 12:12:49;;;;;;;2.08;1.00;;;;;;;;;;4902779;29;20041;-81
2023/07/22 12:15:21;;;;;;;2.22;1.30;;;;;;;;;;4904127;29;20044;-80
2023/07/22 12:17:47;;;;;;;3.03;1.10;;;;;;;;;;4892662;29;20036;-80
2023/07/22 12:20:13;;;;;;;2.28;1.00;;;;;;;;;;4889981;29;20081;-80
2023/07/22 12:22:39;;;;;;;6.03;1.45;;;;;;;;;;4898922;29;20024;-81
2023/07/22 12:25:06;;;;;;;8.00;1.60;;;;;;;;;;4898078;29;20042;-80
2023/07/22 12:27:32;;;;;;;2.42;0.98;;;;;;;;;;4899007;29;20543;-80
2023/07/22 12:29:58;;;;;;;3.58;1.15;;;;;;;;;;4890758;29;20032;-81
2023/07/22 12:32:24;;;;;;;3.15;1.05;;;;;;;;;;4889470;29;20036;-79
2023/07/22 12:34:50;;;;;;;3.22;1.08;;;;;;;;;;4897753;29;20037;-81
2023/07/22 12:37:16;;;;;;;2.15;0.90;;;;;;;;;;4891006;29;20472;-80
2023/07/22 12:39:42;;;;;;;4.45;1.10;;;;;;;;;;4901145;29;20037;-81
2023/07/22 12:42:08;;;;;;;2.90;1.13;;;;;;;;;;4897778;29;20039;-80
2023/07/22 12:44:34;;;;;;;3.17;1.30;;;;;;;;;;4900134;29;20052;-81
2023/07/22 12:47:01;;;;;;;2.28;1.10;;;;;;;;;;4896143;29;20075;-82
2023/07/22 12:49:27;;;;;;;4.60;1.10;;;;;;;;;;4899223;29;20020;-81
2023/07/22 12:52:22;;;;;;;3.13;1.23;;;;;;;;;;4915153;23;20061;-81
2023/07/22 12:54:53;;;;;;;4.00;1.30;;;;;;;;;;4899799;29;20047;-81
2023/07/22 12:57:54;;;;;;;3.58;1.20;;;;;;;;;;4901384;29;20055;-81
2023/07/22 13:00:49;;;;;;;3.72;1.00;;;;;;;;;;4906701;29;20040;-81
2023/07/22 13:12:47;;;;;;;5.03;1.27;;;;;;;;;;4927346;29;20609;-81
2023/07/22 13:18:32;;;;;;;2.17;1.00;;;;;;;;;;4900748;29;20114;-81
2023/07/22 13:31:07;;;;;;;2.30;1.13;;;;;;;;;;4849424;29;20531;-81
2023/07/22 13:46:05;;;;;;;4.43;1.33;;;;;;;;;;4849383;29;20131;-81
2023/07/22 13:48:31;;;;;;;5.03;1.52;;;;;;;;;;4838901;29;20038;-80
2023/07/22 13:50:57;;;;;;;4.35;1.35;;;;;;;;;;4857517;29;20039;-80
2023/07/22 13:53:23;;;;;;;6.97;1.42;;;;;;;;;;4886737;29;20044;-80
2023/07/22 13:55:49;;;;;;;2.78;1.10;;;;;;;;;;4909637;29;20036;-80
2023/07/22 13:58:15;;;;;;;6.50;1.15;;;;;;;;;;4934641;29;20040;-81
2023/07/22 14:00:41;;;;;;;3.40;1.30;;;;;;;;;;4911602;29;20059;-81
2023/07/22 14:03:07;;;;;;;2.50;1.20;;;;;;;;;;4918225;29;20035;-81
2023/07/22 14:05:33;;;;;;;2.35;1.20;;;;;;;;;;4916920;29;20032;-81
2023/07/22 14:07:59;;;;;;;3.15;1.40;;;;;;;;;;4933184;29;20088;-80
2023/07/22 14:10:25;;;;;;;4.18;1.75;;;;;;;;;;4932496;29;20915;-80
2023/07/22 14:12:51;;;;;;;3.22;1.30;;;;;;;;;;4931516;29;20410;-81
2023/07/22 14:15:17;;;;;;;2.63;1.38;;;;;;;;;;4919787;29;20047;-80
2023/07/22 14:17:44;;;;;;;4.78;1.30;;;;;;;;;;4934204;29;20028;-80
2023/07/22 14:20:11;;;;;;;2.85;1.17;;;;;;;;;;4914704;29;20602;-79
2023/07/22 14:22:37;;;;;;;5.32;1.65;;;;;;;;;;4912886;29;20481;-80
2023/07/22 14:25:03;;;;;;;3.90;1.20;;;;;;;;;;4913647;29;20431;-80
2023/07/22 14:27:29;;;;;;;4.40;1.45;;;;;;;;;;4935613;29;20040;-80
2023/07/22 14:29:55;;;;;;;3.15;1.25;;;;;;;;;;4934894;29;20502;-80
2023/07/22 14:32:21;;;;;;;3.15;1.10;;;;;;;;;;4924750;29;20031;-80
2023/07/22 14:34:47;;;;;;;3.90;1.30;;;;;;;;;;4917581;29;20131;-81
2023/07/22 14:37:14;;;;;;;2.80;1.38;;;;;;;;;;4911904;29;20040;-81
2023/07/22 14:39:40;;;;;;;3.25;1.63;;;;;;;;;;4931492;29;20182;-80
2023/07/22 14:42:06;;;;;;;4.15;1.70;;;;;;;;;;4931264;29;20482;-80
2023/07/22 14:44:32;;;;;;;3.55;1.30;;;;;;;;;;4937103;29;20498;-81
2023/07/22 14:46:58;;;;;;;4.72;1.48;;;;;;;;;;4925426;29;20107;-80
2023/07/22 14:49:24;;;;;;;6.90;1.70;;;;;;;;;;4927555;29;20052;-80
2023/07/22 14:51:50;;;;;;;6.88;1.83;;;;;;;;;;4924911;29;20614;-80
2023/07/22 14:54:16;;;;;;;4.95;1.70;;;;;;;;;;4914351;29;20046;-80
2023/07/22 14:56:42;;;;;;;3.35;1.52;;;;;;;;;;4933340;29;20059;-81
2023/07/22 14:59:08;;;;;;;2.67;1.38;;;;;;;;;;4933319;29;20059;-80
2023/07/22 15:01:40;;;;;;;3.97;1.70;;;;;;;;;;4934857;29;20482;-81
2023/07/22 15:04:06;;;;;;;3.72;1.25;;;;;;;;;;4910727;29;20036;-80
2023/07/22 15:06:32;;;;;;;6.15;1.70;;;;;;;;;;4934784;29;20031;-80
2023/07/22 15:08:59;;;;;;;3.35;1.50;;;;;;;;;;4933539;29;20059;-81
2023/07/22 15:11:25;;;;;;;4.25;1.90;;;;;;;;;;4912304;29;20028;-81
2023/07/22 15:13:51;;;;;;;4.43;1.30;;;;;;;;;;4914387;29;20043;-80
2023/07/22 15:16:19;;;;;;;3.30;1.30;;;;;;;;;;4916787;29;20079;-81
2023/07/22 15:18:46;;;;;;;2.67;1.42;;;;;;;;;;4902067;29;20044;-81
2023/07/22 15:25:22;;;;;;;3.80;1.70;;;;;;;;;;4928269;29;20057;-80
2023/07/22 15:28:10;;;;;;;3.92;1.60;;;;;;;;;;4933296;29;20483;-79
2023/07/22 15:33:29;;;;;;;2.85;1.45;;;;;;;;;;4932686;29;20038;-79
2023/07/22 15:36:15;;;;;;;3.22;1.70;;;;;;;;;;4931483;29;20043;-80
2023/07/22 15:38:42;;;;;;;3.42;1.50;;;;;;;;;;4910005;29;20032;-78
2023/07/22 15:41:08;;;;;;;3.17;1.35;;;;;;;;;;4918677;29;20497;-78
2023/07/22 15:43:34;;;;;;;4.28;1.73;;;;;;;;;;4933909;29;20040;-79
2023/07/22 15:46:01;;;;;;;3.53;1.50;;;;;;;;;;4933604;29;20036;-78
2023/07/22 15:48:27;;;;;;;4.20;1.50;;;;;;;;;;4931790;29;20031;-78
2023/07/22 15:50:55;;;;;;;2.90;1.20;;;;;;;;;;4932263;29;20036;-78